MXD528 WMKK-VTBD
Flight info
| Callsign | MXD528 |
|---|---|
| Flight time | 1h 52m |
| Altitude | 38000 |
| Route | BIKDU1D BIKDU Y501 RIGTO M769 GOKEX Y96 EMTIX Y99 HOTEL SABAI3A |
| Aircraft | B38M/M-SDE1FGHILORVWXY/HB1 |
Departure
| Time | 2026-05-07 08:07 |
|---|---|
| Airport | Kuala Lumpur International Airport (WMKK) |
Arrival
| Time | 2026-05-07 09:59 |
|---|---|
| Airport | Don Mueang International Airport (VTBD) |
| Time | Latitude | Longitude | Altitude | Speed | Heading |
|---|---|---|---|---|---|
| 2026-05-07 07:45 | 2.75462 | 101.70725 | 75 ft | 0 kts | 146° |
| 2026-05-07 07:57 | 2.75463 | 101.70725 | 75 ft | 1 kts | 146° |
| 2026-05-07 07:57 | 2.75476 | 101.70716 | 66 ft | 3 kts | 143° |
| 2026-05-07 07:57 | 2.75490 | 101.70703 | 75 ft | 3 kts | 117° |
| 2026-05-07 07:58 | 2.75492 | 101.70693 | 75 ft | 2 kts | 59° |
| 2026-05-07 07:58 | 2.75493 | 101.70694 | 75 ft | 2 kts | 56° |
| 2026-05-07 07:58 | 2.75502 | 101.70707 | 69 ft | 1 kts | 56° |
| 2026-05-07 07:58 | 2.75503 | 101.70708 | 75 ft | 0 kts | 56° |
| 2026-05-07 08:02 | 2.75509 | 101.70716 | 75 ft | 3 kts | 55° |
| 2026-05-07 08:03 | 2.75522 | 101.70737 | 75 ft | 8 kts | 56° |
| 2026-05-07 08:03 | 2.75577 | 101.70798 | 66 ft | 16 kts | 23° |
| 2026-05-07 08:03 | 2.75666 | 101.70882 | 75 ft | 20 kts | 55° |
| 2026-05-07 08:03 | 2.75741 | 101.70999 | 74 ft | 17 kts | 59° |
| 2026-05-07 08:04 | 2.75807 | 101.71099 | 66 ft | 18 kts | 56° |
| 2026-05-07 08:04 | 2.75887 | 101.71216 | 66 ft | 21 kts | 57° |
| 2026-05-07 08:04 | 2.75845 | 101.71299 | 71 ft | 14 kts | 150° |
| 2026-05-07 08:04 | 2.75754 | 101.71359 | 76 ft | 17 kts | 145° |
| 2026-05-07 08:05 | 2.75645 | 101.71434 | 72 ft | 21 kts | 145° |
| 2026-05-07 08:05 | 2.75563 | 101.71543 | 76 ft | 20 kts | 76° |
| 2026-05-07 08:05 | 2.75630 | 101.71652 | 77 ft | 10 kts | 48° |
| 2026-05-07 08:05 | 2.75660 | 101.71653 | 74 ft | 3 kts | 335° |
| 2026-05-07 08:06 | 2.75662 | 101.71652 | 77 ft | 0 kts | 332° |
| 2026-05-07 08:06 | 2.75737 | 101.71608 | 70 ft | 41 kts | 324° |
| 2026-05-07 08:06 | 2.76169 | 101.71313 | 67 ft | 107 kts | 327° |
| 2026-05-07 08:06 | 2.76947 | 101.70790 | 63 ft | 160 kts | 326° |
| 2026-05-07 08:07 | 2.77939 | 101.70121 | 432 ft | 180 kts | 327° |
| 2026-05-07 08:07 | 2.78996 | 101.69449 | 1278 ft | 176 kts | 326° |
| 2026-05-07 08:07 | 2.80071 | 101.68872 | 1999 ft | 178 kts | 340° |
| 2026-05-07 08:07 | 2.81301 | 101.68509 | 2549 ft | 189 kts | 347° |
| 2026-05-07 08:08 | 2.82622 | 101.68183 | 3099 ft | 202 kts | 347° |
| 2026-05-07 08:08 | 2.84049 | 101.67830 | 3509 ft | 223 kts | 348° |
| 2026-05-07 08:08 | 2.85637 | 101.67427 | 3844 ft | 248 kts | 347° |
| 2026-05-07 08:08 | 2.87372 | 101.66983 | 4370 ft | 265 kts | 347° |
| 2026-05-07 08:09 | 2.89208 | 101.66509 | 4944 ft | 279 kts | 346° |
| 2026-05-07 08:09 | 2.91069 | 101.66031 | 5731 ft | 281 kts | 346° |
| 2026-05-07 08:09 | 2.92948 | 101.65544 | 6556 ft | 284 kts | 346° |
| 2026-05-07 08:09 | 2.94847 | 101.65053 | 7355 ft | 287 kts | 346° |
| 2026-05-07 08:10 | 2.96787 | 101.64551 | 8131 ft | 290 kts | 347° |
| 2026-05-07 08:10 | 2.98741 | 101.64047 | 8850 ft | 294 kts | 347° |
| 2026-05-07 08:10 | 3.00714 | 101.63537 | 9579 ft | 297 kts | 347° |
| 2026-05-07 08:10 | 3.02705 | 101.63022 | 10247 ft | 301 kts | 347° |
| 2026-05-07 08:11 | 3.04765 | 101.62489 | 10742 ft | 313 kts | 347° |
| 2026-05-07 08:11 | 3.06925 | 101.61931 | 11217 ft | 325 kts | 347° |
| 2026-05-07 08:11 | 3.09148 | 101.61354 | 11805 ft | 333 kts | 347° |
| 2026-05-07 08:11 | 3.11398 | 101.60773 | 12537 ft | 337 kts | 347° |
| 2026-05-07 08:12 | 3.13684 | 101.60182 | 13267 ft | 340 kts | 347° |
| 2026-05-07 08:12 | 3.15991 | 101.59585 | 14011 ft | 344 kts | 347° |
| 2026-05-07 08:12 | 3.18327 | 101.58980 | 14739 ft | 348 kts | 347° |
| 2026-05-07 08:12 | 3.20666 | 101.58375 | 15475 ft | 351 kts | 347° |
| 2026-05-07 08:13 | 3.23055 | 101.57757 | 16186 ft | 354 kts | 347° |
| 2026-05-07 08:13 | 3.25462 | 101.57134 | 16842 ft | 358 kts | 347° |
| 2026-05-07 08:13 | 3.27885 | 101.56507 | 17519 ft | 361 kts | 347° |
| 2026-05-07 08:13 | 3.30336 | 101.55873 | 18145 ft | 365 kts | 347° |
| 2026-05-07 08:14 | 3.32772 | 101.55243 | 18743 ft | 368 kts | 347° |
| 2026-05-07 08:14 | 3.35267 | 101.54598 | 19333 ft | 371 kts | 347° |
| 2026-05-07 08:14 | 3.37778 | 101.53947 | 19901 ft | 374 kts | 347° |
| 2026-05-07 08:14 | 3.40341 | 101.53283 | 20456 ft | 377 kts | 347° |
| 2026-05-07 08:15 | 3.42860 | 101.52632 | 20977 ft | 380 kts | 348° |
| 2026-05-07 08:15 | 3.45468 | 101.51957 | 21481 ft | 384 kts | 348° |
| 2026-05-07 08:15 | 3.48027 | 101.51294 | 21980 ft | 386 kts | 348° |
| 2026-05-07 08:15 | 3.50640 | 101.50617 | 22424 ft | 389 kts | 348° |
| 2026-05-07 08:16 | 3.53282 | 101.49933 | 22898 ft | 392 kts | 348° |
| 2026-05-07 08:16 | 3.55933 | 101.49248 | 23363 ft | 395 kts | 348° |
| 2026-05-07 08:16 | 3.58613 | 101.48554 | 23786 ft | 398 kts | 348° |
| 2026-05-07 08:16 | 3.61303 | 101.47857 | 23895 ft | 399 kts | 348° |
| 2026-05-07 08:17 | 3.63957 | 101.47169 | 23884 ft | 398 kts | 348° |
| 2026-05-07 08:17 | 3.66672 | 101.46466 | 23888 ft | 398 kts | 348° |
| 2026-05-07 08:17 | 3.69321 | 101.45780 | 23885 ft | 398 kts | 348° |
| 2026-05-07 08:17 | 3.72026 | 101.45080 | 23882 ft | 398 kts | 348° |
| 2026-05-07 08:18 | 3.74699 | 101.44388 | 23880 ft | 398 kts | 348° |
| 2026-05-07 08:18 | 3.77379 | 101.43693 | 23874 ft | 398 kts | 348° |
| 2026-05-07 08:18 | 3.80043 | 101.43003 | 23883 ft | 398 kts | 348° |
| 2026-05-07 08:18 | 3.82724 | 101.42308 | 23881 ft | 398 kts | 348° |
| 2026-05-07 08:19 | 3.85351 | 101.41457 | 23891 ft | 400 kts | 338° |
| 2026-05-07 08:19 | 3.87886 | 101.40315 | 23894 ft | 400 kts | 339° |
| 2026-05-07 08:19 | 3.90455 | 101.39175 | 23904 ft | 400 kts | 339° |
| 2026-05-07 08:19 | 3.92989 | 101.38049 | 23898 ft | 400 kts | 339° |
| 2026-05-07 08:20 | 3.95544 | 101.36913 | 23898 ft | 400 kts | 338° |
| 2026-05-07 08:20 | 3.98101 | 101.35775 | 23896 ft | 400 kts | 339° |
| 2026-05-07 08:20 | 4.00625 | 101.34652 | 23898 ft | 400 kts | 339° |
| 2026-05-07 08:20 | 4.03173 | 101.33519 | 23897 ft | 400 kts | 339° |
| 2026-05-07 08:21 | 4.05700 | 101.32395 | 23896 ft | 401 kts | 338° |
| 2026-05-07 08:21 | 4.08249 | 101.31260 | 23899 ft | 401 kts | 338° |
| 2026-05-07 08:21 | 4.10810 | 101.30121 | 23904 ft | 401 kts | 338° |
| 2026-05-07 08:21 | 4.13346 | 101.28993 | 23904 ft | 401 kts | 338° |
| 2026-05-07 08:22 | 4.15905 | 101.27853 | 23904 ft | 400 kts | 338° |
| 2026-05-07 08:22 | 4.18445 | 101.26723 | 23907 ft | 400 kts | 338° |
| 2026-05-07 08:22 | 4.20989 | 101.25591 | 23907 ft | 401 kts | 338° |
| 2026-05-07 08:22 | 4.23562 | 101.24445 | 23908 ft | 401 kts | 338° |
| 2026-05-07 08:23 | 4.26093 | 101.23319 | 23899 ft | 401 kts | 338° |
| 2026-05-07 08:23 | 4.28623 | 101.22193 | 23903 ft | 401 kts | 338° |
| 2026-05-07 08:23 | 4.31203 | 101.21044 | 23907 ft | 401 kts | 338° |
| 2026-05-07 08:23 | 4.33723 | 101.19921 | 23912 ft | 401 kts | 338° |
| 2026-05-07 08:24 | 4.36283 | 101.18782 | 23898 ft | 401 kts | 338° |
| 2026-05-07 08:24 | 4.38825 | 101.17650 | 23901 ft | 401 kts | 338° |
| 2026-05-07 08:24 | 4.41370 | 101.16517 | 23905 ft | 401 kts | 338° |
| 2026-05-07 08:24 | 4.43933 | 101.15374 | 23909 ft | 401 kts | 338° |
| 2026-05-07 08:25 | 4.46487 | 101.14237 | 24061 ft | 401 kts | 338° |
| 2026-05-07 08:25 | 4.49030 | 101.13105 | 24632 ft | 400 kts | 338° |
| 2026-05-07 08:25 | 4.51563 | 101.11976 | 24889 ft | 407 kts | 338° |
| 2026-05-07 08:25 | 4.54188 | 101.10806 | 25346 ft | 408 kts | 338° |
| 2026-05-07 08:26 | 4.59400 | 101.08527 | 26108 ft | 413 kts | 339° |
| 2026-05-07 08:26 | 4.62053 | 101.07386 | 26510 ft | 415 kts | 339° |
| 2026-05-07 08:26 | 4.64721 | 101.06235 | 26865 ft | 418 kts | 339° |
| 2026-05-07 08:27 | 4.67406 | 101.05077 | 27241 ft | 420 kts | 339° |
| 2026-05-07 08:27 | 4.70102 | 101.03914 | 27614 ft | 423 kts | 339° |
| 2026-05-07 08:27 | 4.72816 | 101.02743 | 27956 ft | 425 kts | 338° |
| 2026-05-07 08:27 | 4.75546 | 101.01564 | 28332 ft | 427 kts | 338° |
| 2026-05-07 08:28 | 4.78240 | 101.00402 | 28666 ft | 429 kts | 338° |
| 2026-05-07 08:28 | 4.81019 | 100.99203 | 28994 ft | 431 kts | 338° |
| 2026-05-07 08:28 | 4.83749 | 100.98024 | 29308 ft | 433 kts | 339° |
| 2026-05-07 08:28 | 4.86523 | 100.96826 | 29629 ft | 435 kts | 338° |
| 2026-05-07 08:29 | 4.89312 | 100.95623 | 29931 ft | 437 kts | 338° |
| 2026-05-07 08:29 | 4.92113 | 100.94413 | 30238 ft | 439 kts | 338° |
| 2026-05-07 08:29 | 4.94937 | 100.93193 | 30546 ft | 441 kts | 338° |
| 2026-05-07 08:29 | 4.97773 | 100.91969 | 30791 ft | 444 kts | 338° |
| 2026-05-07 08:30 | 5.00622 | 100.90737 | 31064 ft | 447 kts | 338° |
| 2026-05-07 08:30 | 5.03490 | 100.89499 | 31323 ft | 450 kts | 338° |
| 2026-05-07 08:30 | 5.06375 | 100.88253 | 31587 ft | 452 kts | 338° |
| 2026-05-07 08:30 | 5.09268 | 100.87003 | 31805 ft | 455 kts | 338° |
| 2026-05-07 08:31 | 5.12152 | 100.85756 | 32045 ft | 457 kts | 338° |
| 2026-05-07 08:31 | 5.15086 | 100.84488 | 32307 ft | 459 kts | 338° |
| 2026-05-07 08:31 | 5.18025 | 100.83219 | 32520 ft | 462 kts | 338° |
| 2026-05-07 08:31 | 5.20993 | 100.81935 | 32757 ft | 464 kts | 338° |
| 2026-05-07 08:32 | 5.23955 | 100.80655 | 33000 ft | 466 kts | 338° |
| 2026-05-07 08:32 | 5.26943 | 100.79362 | 33206 ft | 468 kts | 338° |
| 2026-05-07 08:32 | 5.29943 | 100.78066 | 33428 ft | 471 kts | 338° |
| 2026-05-07 08:32 | 5.32923 | 100.76777 | 33646 ft | 472 kts | 338° |
| 2026-05-07 08:33 | 5.35947 | 100.75471 | 33861 ft | 474 kts | 338° |
| 2026-05-07 08:33 | 5.39051 | 100.74310 | 34089 ft | 475 kts | 341° |
| 2026-05-07 08:33 | 5.42159 | 100.73173 | 34381 ft | 476 kts | 341° |
| 2026-05-07 08:33 | 5.45262 | 100.72022 | 34708 ft | 475 kts | 340° |
| 2026-05-07 08:34 | 5.48367 | 100.70866 | 35037 ft | 474 kts | 340° |
| 2026-05-07 08:34 | 5.51457 | 100.69714 | 35366 ft | 472 kts | 340° |
| 2026-05-07 08:34 | 5.54532 | 100.68567 | 35679 ft | 471 kts | 340° |
| 2026-05-07 08:34 | 5.57578 | 100.67431 | 35955 ft | 471 kts | 340° |
| 2026-05-07 08:35 | 5.60645 | 100.66287 | 36259 ft | 470 kts | 340° |
| 2026-05-07 08:35 | 5.63708 | 100.65145 | 36528 ft | 469 kts | 340° |
| 2026-05-07 08:35 | 5.66779 | 100.63999 | 36792 ft | 468 kts | 340° |
| 2026-05-07 08:35 | 5.69821 | 100.62864 | 37131 ft | 465 kts | 340° |
| 2026-05-07 08:36 | 5.72841 | 100.61737 | 37526 ft | 461 kts | 340° |
| 2026-05-07 08:36 | 5.75837 | 100.60619 | 37838 ft | 458 kts | 340° |
| 2026-05-07 08:36 | 5.81774 | 100.58403 | 37868 ft | 455 kts | 340° |
| 2026-05-07 08:37 | 5.87718 | 100.56184 | 37871 ft | 455 kts | 340° |
| 2026-05-07 08:37 | 5.92470 | 100.54410 | 37868 ft | 456 kts | 340° |
| 2026-05-07 08:38 | 5.98324 | 100.52223 | 37856 ft | 456 kts | 340° |
| 2026-05-07 08:38 | 6.04125 | 100.50056 | 37876 ft | 455 kts | 340° |
| 2026-05-07 08:39 | 6.09899 | 100.47898 | 37885 ft | 455 kts | 340° |
| 2026-05-07 08:39 | 6.15781 | 100.45699 | 37883 ft | 455 kts | 340° |
| 2026-05-07 08:40 | 6.21591 | 100.43527 | 37884 ft | 455 kts | 340° |
| 2026-05-07 08:40 | 6.27350 | 100.41374 | 37884 ft | 455 kts | 340° |
| 2026-05-07 08:41 | 6.33264 | 100.39161 | 37885 ft | 454 kts | 340° |
| 2026-05-07 08:41 | 6.39011 | 100.37011 | 37887 ft | 454 kts | 340° |
| 2026-05-07 08:42 | 6.44901 | 100.34807 | 37888 ft | 454 kts | 340° |
| 2026-05-07 08:42 | 6.50659 | 100.32654 | 37882 ft | 454 kts | 340° |
| 2026-05-07 08:43 | 6.56482 | 100.30472 | 37875 ft | 454 kts | 340° |
| 2026-05-07 08:43 | 6.62290 | 100.28298 | 37858 ft | 453 kts | 340° |
| 2026-05-07 08:44 | 6.68142 | 100.26112 | 37882 ft | 453 kts | 341° |
| 2026-05-07 08:44 | 6.71133 | 100.25440 | 37860 ft | 450 kts | 358° |
| 2026-05-07 08:44 | 6.74235 | 100.25586 | 37892 ft | 450 kts | 7° |
| 2026-05-07 08:45 | 6.80288 | 100.26187 | 37885 ft | 452 kts | 6° |
| 2026-05-07 08:45 | 6.86464 | 100.26841 | 37876 ft | 452 kts | 6° |
| 2026-05-07 08:46 | 6.92600 | 100.27514 | 37876 ft | 451 kts | 6° |
| 2026-05-07 08:46 | 6.98627 | 100.28177 | 37890 ft | 452 kts | 6° |
| 2026-05-07 08:47 | 7.04827 | 100.28860 | 37873 ft | 451 kts | 6° |
| 2026-05-07 08:47 | 7.11080 | 100.29547 | 37875 ft | 451 kts | 6° |
| 2026-05-07 08:48 | 7.17326 | 100.30235 | 37880 ft | 451 kts | 6° |
| 2026-05-07 08:48 | 7.23535 | 100.30919 | 37883 ft | 451 kts | 6° |
| 2026-05-07 08:49 | 7.29781 | 100.31607 | 37881 ft | 451 kts | 6° |
| 2026-05-07 08:49 | 7.36014 | 100.32294 | 37880 ft | 450 kts | 6° |
| 2026-05-07 08:50 | 7.42259 | 100.32980 | 37877 ft | 450 kts | 6° |
| 2026-05-07 08:50 | 7.48491 | 100.33668 | 37883 ft | 450 kts | 6° |
| 2026-05-07 08:51 | 7.54749 | 100.33976 | 37874 ft | 450 kts | 0° |
| 2026-05-07 08:51 | 7.60990 | 100.34085 | 37883 ft | 450 kts | 1° |
| 2026-05-07 08:52 | 7.67252 | 100.34231 | 37883 ft | 450 kts | 1° |
| 2026-05-07 08:52 | 7.73519 | 100.34379 | 37878 ft | 450 kts | 1° |
| 2026-05-07 08:53 | 7.79747 | 100.34528 | 37881 ft | 450 kts | 1° |
| 2026-05-07 08:53 | 7.86017 | 100.34677 | 37880 ft | 450 kts | 1° |
| 2026-05-07 08:54 | 7.92276 | 100.34827 | 37892 ft | 450 kts | 1° |
| 2026-05-07 08:54 | 7.98543 | 100.34976 | 37889 ft | 450 kts | 1° |
| 2026-05-07 08:55 | 8.04761 | 100.35125 | 37887 ft | 449 kts | 1° |
| 2026-05-07 08:55 | 8.11017 | 100.35275 | 37893 ft | 449 kts | 1° |
| 2026-05-07 08:56 | 8.17277 | 100.35424 | 37906 ft | 449 kts | 1° |
| 2026-05-07 08:56 | 8.23532 | 100.35574 | 37896 ft | 449 kts | 1° |
| 2026-05-07 08:57 | 8.29782 | 100.35723 | 37900 ft | 449 kts | 1° |
| 2026-05-07 08:57 | 8.36030 | 100.35873 | 37899 ft | 449 kts | 1° |
| 2026-05-07 08:58 | 8.42276 | 100.36022 | 37908 ft | 449 kts | 1° |
| 2026-05-07 08:58 | 8.48489 | 100.36170 | 37897 ft | 448 kts | 1° |
| 2026-05-07 08:59 | 8.54731 | 100.36320 | 37905 ft | 448 kts | 1° |
| 2026-05-07 08:59 | 8.60974 | 100.36470 | 37906 ft | 448 kts | 1° |
| 2026-05-07 09:00 | 8.67171 | 100.36618 | 37911 ft | 448 kts | 0° |
| 2026-05-07 09:00 | 8.73408 | 100.36767 | 37910 ft | 447 kts | 0° |
| 2026-05-07 09:01 | 8.79646 | 100.36914 | 37908 ft | 447 kts | 0° |
| 2026-05-07 09:01 | 8.85881 | 100.37059 | 37902 ft | 447 kts | 0° |
| 2026-05-07 09:02 | 8.92058 | 100.37202 | 37907 ft | 446 kts | 0° |
| 2026-05-07 09:02 | 8.98283 | 100.37346 | 37911 ft | 446 kts | 0° |
| 2026-05-07 09:03 | 9.04485 | 100.37489 | 37909 ft | 446 kts | 0° |
| 2026-05-07 09:03 | 9.10699 | 100.37634 | 37907 ft | 446 kts | 0° |
| 2026-05-07 09:04 | 9.16902 | 100.37778 | 37904 ft | 445 kts | 0° |
| 2026-05-07 09:04 | 9.23100 | 100.37922 | 37906 ft | 445 kts | 0° |
| 2026-05-07 09:05 | 9.29268 | 100.38067 | 37907 ft | 445 kts | 0° |
| 2026-05-07 09:05 | 9.35469 | 100.38211 | 37906 ft | 445 kts | 0° |
| 2026-05-07 09:06 | 9.41654 | 100.38355 | 37914 ft | 444 kts | 0° |
| 2026-05-07 09:06 | 9.47796 | 100.38499 | 37908 ft | 444 kts | 0° |
| 2026-05-07 09:07 | 9.53972 | 100.38645 | 37905 ft | 444 kts | 0° |
| 2026-05-07 09:07 | 9.60143 | 100.38790 | 37906 ft | 443 kts | 0° |
| 2026-05-07 09:08 | 9.66304 | 100.38935 | 37907 ft | 443 kts | 0° |
| 2026-05-07 09:08 | 9.72481 | 100.39080 | 37907 ft | 444 kts | 0° |
| 2026-05-07 09:09 | 9.78631 | 100.39226 | 37905 ft | 443 kts | 0° |
| 2026-05-07 09:09 | 9.84791 | 100.39371 | 37905 ft | 443 kts | 0° |
| 2026-05-07 09:10 | 9.90957 | 100.39517 | 37903 ft | 443 kts | 0° |
| 2026-05-07 09:10 | 9.97143 | 100.39663 | 37896 ft | 443 kts | 0° |
| 2026-05-07 09:11 | 10.03284 | 100.39809 | 37898 ft | 443 kts | 0° |
| 2026-05-07 09:11 | 10.09446 | 100.39955 | 37897 ft | 442 kts | 0° |
| 2026-05-07 09:12 | 10.15573 | 100.40103 | 37893 ft | 442 kts | 0° |
| 2026-05-07 09:12 | 10.21741 | 100.40251 | 37892 ft | 442 kts | 0° |
| 2026-05-07 09:13 | 10.27882 | 100.40399 | 37891 ft | 442 kts | 0° |
| 2026-05-07 09:13 | 10.34040 | 100.40548 | 37879 ft | 442 kts | 0° |
| 2026-05-07 09:14 | 10.40207 | 100.40697 | 37876 ft | 442 kts | 360° |
| 2026-05-07 09:14 | 10.46323 | 100.40844 | 37877 ft | 442 kts | 0° |
| 2026-05-07 09:15 | 10.52478 | 100.40992 | 37866 ft | 442 kts | 0° |
| 2026-05-07 09:15 | 10.58641 | 100.41141 | 37870 ft | 442 kts | 0° |
| 2026-05-07 09:16 | 10.64793 | 100.41289 | 37872 ft | 442 kts | 360° |
| 2026-05-07 09:16 | 10.70937 | 100.41436 | 37870 ft | 442 kts | 360° |
| 2026-05-07 09:17 | 10.77065 | 100.41586 | 37859 ft | 442 kts | 360° |
| 2026-05-07 09:17 | 10.83220 | 100.41735 | 37836 ft | 442 kts | 0° |
| 2026-05-07 09:18 | 10.89367 | 100.41883 | 37833 ft | 442 kts | 360° |
| 2026-05-07 09:18 | 10.95492 | 100.42032 | 37832 ft | 441 kts | 360° |
| 2026-05-07 09:19 | 11.01637 | 100.42180 | 37834 ft | 442 kts | 360° |
| 2026-05-07 09:19 | 11.07751 | 100.42329 | 37832 ft | 441 kts | 360° |
| 2026-05-07 09:20 | 11.13902 | 100.42477 | 37833 ft | 441 kts | 360° |
| 2026-05-07 09:20 | 11.20046 | 100.42626 | 37831 ft | 441 kts | 360° |
| 2026-05-07 09:21 | 11.26178 | 100.42775 | 37832 ft | 440 kts | 360° |
| 2026-05-07 09:21 | 11.29186 | 100.42631 | 37822 ft | 436 kts | 347° |
| 2026-05-07 09:21 | 11.32057 | 100.41681 | 37841 ft | 434 kts | 333° |
| 2026-05-07 09:22 | 11.37453 | 100.38874 | 37833 ft | 435 kts | 331° |
| 2026-05-07 09:22 | 11.42798 | 100.35947 | 37834 ft | 435 kts | 330° |
| 2026-05-07 09:23 | 11.47217 | 100.33485 | 37833 ft | 435 kts | 330° |
| 2026-05-07 09:23 | 11.53398 | 100.30030 | 37833 ft | 434 kts | 330° |
| 2026-05-07 09:24 | 11.57809 | 100.27561 | 37830 ft | 434 kts | 330° |
| 2026-05-07 09:24 | 11.63113 | 100.24593 | 37832 ft | 434 kts | 330° |
| 2026-05-07 09:25 | 11.68423 | 100.21621 | 37831 ft | 434 kts | 330° |
| 2026-05-07 09:25 | 11.73696 | 100.18668 | 37832 ft | 434 kts | 330° |
| 2026-05-07 09:26 | 11.78993 | 100.15707 | 37823 ft | 434 kts | 332° |
| 2026-05-07 09:26 | 11.81815 | 100.14633 | 37816 ft | 433 kts | 348° |
| 2026-05-07 09:26 | 11.84827 | 100.14393 | 37822 ft | 436 kts | 2° |
| 2026-05-07 09:27 | 11.90856 | 100.15154 | 37826 ft | 440 kts | 6° |
| 2026-05-07 09:28 | 11.99944 | 100.16571 | 37823 ft | 440 kts | 7° |
| 2026-05-07 09:28 | 12.05996 | 100.17557 | 37821 ft | 441 kts | 7° |
| 2026-05-07 09:29 | 12.12072 | 100.18550 | 37816 ft | 441 kts | 7° |
| 2026-05-07 09:29 | 12.18100 | 100.19536 | 37820 ft | 441 kts | 7° |
| 2026-05-07 09:30 | 12.24162 | 100.20528 | 37814 ft | 441 kts | 7° |
| 2026-05-07 09:30 | 12.30195 | 100.21516 | 37812 ft | 437 kts | 7° |
| 2026-05-07 09:31 | 12.36208 | 100.22501 | 37799 ft | 438 kts | 7° |
| 2026-05-07 09:31 | 12.39231 | 100.22995 | 37077 ft | 441 kts | 7° |
| 2026-05-07 09:31 | 12.42295 | 100.23498 | 36094 ft | 450 kts | 7° |
| 2026-05-07 09:31 | 12.45374 | 100.24004 | 35128 ft | 457 kts | 7° |
| 2026-05-07 09:32 | 12.48548 | 100.24524 | 34136 ft | 464 kts | 7° |
| 2026-05-07 09:32 | 12.51762 | 100.25051 | 33272 ft | 468 kts | 7° |
| 2026-05-07 09:32 | 12.54974 | 100.25578 | 32770 ft | 463 kts | 7° |
| 2026-05-07 09:32 | 12.58130 | 100.26096 | 32414 ft | 455 kts | 7° |
| 2026-05-07 09:33 | 12.61239 | 100.26607 | 31925 ft | 451 kts | 7° |
| 2026-05-07 09:33 | 12.64326 | 100.27113 | 31356 ft | 448 kts | 7° |
| 2026-05-07 09:33 | 12.67360 | 100.27612 | 30830 ft | 444 kts | 7° |
| 2026-05-07 09:33 | 12.70394 | 100.28110 | 30331 ft | 440 kts | 7° |
| 2026-05-07 09:34 | 12.73406 | 100.28606 | 29828 ft | 436 kts | 7° |
| 2026-05-07 09:34 | 12.76394 | 100.29096 | 29327 ft | 432 kts | 7° |
| 2026-05-07 09:34 | 12.79354 | 100.29583 | 28829 ft | 428 kts | 7° |
| 2026-05-07 09:34 | 12.82294 | 100.30067 | 28344 ft | 424 kts | 7° |
| 2026-05-07 09:35 | 12.85195 | 100.30544 | 27858 ft | 420 kts | 7° |
| 2026-05-07 09:35 | 12.88066 | 100.31016 | 27369 ft | 416 kts | 8° |
| 2026-05-07 09:35 | 12.90910 | 100.31484 | 26896 ft | 413 kts | 8° |
| 2026-05-07 09:35 | 12.93709 | 100.31945 | 26417 ft | 409 kts | 8° |
| 2026-05-07 09:36 | 12.96508 | 100.32405 | 25966 ft | 405 kts | 8° |
| 2026-05-07 09:36 | 12.99279 | 100.32861 | 25501 ft | 401 kts | 7° |
| 2026-05-07 09:36 | 13.02043 | 100.33012 | 24982 ft | 397 kts | 356° |
| 2026-05-07 09:36 | 13.04787 | 100.32920 | 24558 ft | 392 kts | 358° |
| 2026-05-07 09:37 | 13.07502 | 100.32858 | 24127 ft | 387 kts | 358° |
| 2026-05-07 09:37 | 13.10186 | 100.32801 | 23687 ft | 384 kts | 358° |
| 2026-05-07 09:37 | 13.12851 | 100.32770 | 23220 ft | 381 kts | 359° |
| 2026-05-07 09:37 | 13.15468 | 100.32784 | 22741 ft | 379 kts | 359° |
| 2026-05-07 09:38 | 13.18089 | 100.32793 | 22332 ft | 374 kts | 359° |
| 2026-05-07 09:38 | 13.20689 | 100.32801 | 21911 ft | 371 kts | 359° |
| 2026-05-07 09:38 | 13.23252 | 100.32815 | 21557 ft | 366 kts | 359° |
| 2026-05-07 09:38 | 13.25770 | 100.32829 | 21303 ft | 358 kts | 359° |
| 2026-05-07 09:39 | 13.28242 | 100.32842 | 20997 ft | 351 kts | 359° |
| 2026-05-07 09:39 | 13.30668 | 100.32856 | 20668 ft | 346 kts | 359° |
| 2026-05-07 09:39 | 13.33062 | 100.32869 | 20311 ft | 342 kts | 359° |
| 2026-05-07 09:39 | 13.35435 | 100.32883 | 19975 ft | 338 kts | 359° |
| 2026-05-07 09:40 | 13.37778 | 100.32896 | 19660 ft | 335 kts | 359° |
| 2026-05-07 09:40 | 13.40086 | 100.32908 | 19336 ft | 336 kts | 359° |
| 2026-05-07 09:40 | 13.41669 | 100.32916 | 19122 ft | 336 kts | 359° |
| 2026-05-07 09:41 | 13.43651 | 100.32926 | 18851 ft | 335 kts | 359° |
| 2026-05-07 09:41 | 13.45960 | 100.32629 | 18484 ft | 333 kts | 344° |
| 2026-05-07 09:41 | 13.48200 | 100.32055 | 18165 ft | 331 kts | 345° |
| 2026-05-07 09:41 | 13.50440 | 100.31500 | 17858 ft | 329 kts | 345° |
| 2026-05-07 09:42 | 13.52638 | 100.30957 | 17539 ft | 328 kts | 345° |
| 2026-05-07 09:42 | 13.54850 | 100.30410 | 17218 ft | 327 kts | 345° |
| 2026-05-07 09:42 | 13.57066 | 100.29862 | 16907 ft | 326 kts | 345° |
| 2026-05-07 09:42 | 13.59273 | 100.29316 | 16564 ft | 325 kts | 345° |
| 2026-05-07 09:43 | 13.61471 | 100.28773 | 16230 ft | 324 kts | 345° |
| 2026-05-07 09:43 | 13.63660 | 100.28231 | 15914 ft | 322 kts | 345° |
| 2026-05-07 09:43 | 13.65834 | 100.27694 | 15619 ft | 320 kts | 345° |
| 2026-05-07 09:43 | 13.67968 | 100.27166 | 15317 ft | 318 kts | 345° |
| 2026-05-07 09:44 | 13.70116 | 100.26634 | 15012 ft | 316 kts | 345° |
| 2026-05-07 09:44 | 13.72251 | 100.26105 | 14710 ft | 315 kts | 345° |
| 2026-05-07 09:44 | 13.74408 | 100.25809 | 14348 ft | 315 kts | 3° |
| 2026-05-07 09:44 | 13.76507 | 100.26393 | 14033 ft | 312 kts | 27° |
| 2026-05-07 09:45 | 13.78356 | 100.27533 | 13771 ft | 308 kts | 29° |
| 2026-05-07 09:45 | 13.80205 | 100.28661 | 13457 ft | 309 kts | 30° |
| 2026-05-07 09:45 | 13.82044 | 100.29796 | 13161 ft | 308 kts | 30° |
| 2026-05-07 09:45 | 13.83874 | 100.30935 | 12866 ft | 307 kts | 30° |
| 2026-05-07 09:46 | 13.85702 | 100.32077 | 12557 ft | 306 kts | 30° |
| 2026-05-07 09:46 | 13.87520 | 100.33216 | 12279 ft | 304 kts | 30° |
| 2026-05-07 09:46 | 13.89299 | 100.34332 | 12081 ft | 301 kts | 30° |
| 2026-05-07 09:46 | 13.91082 | 100.35451 | 11833 ft | 300 kts | 30° |
| 2026-05-07 09:47 | 13.92865 | 100.36570 | 11561 ft | 299 kts | 30° |
| 2026-05-07 09:47 | 13.94644 | 100.37688 | 11271 ft | 299 kts | 30° |
| 2026-05-07 09:47 | 13.96422 | 100.38805 | 10982 ft | 299 kts | 30° |
| 2026-05-07 09:47 | 13.98203 | 100.39923 | 10694 ft | 299 kts | 31° |
| 2026-05-07 09:48 | 13.99985 | 100.41042 | 10405 ft | 299 kts | 31° |
| 2026-05-07 09:48 | 14.01757 | 100.42155 | 10106 ft | 297 kts | 31° |
| 2026-05-07 09:48 | 14.03515 | 100.43261 | 9762 ft | 296 kts | 31° |
| 2026-05-07 09:48 | 14.05263 | 100.44360 | 9434 ft | 293 kts | 31° |
| 2026-05-07 09:49 | 14.06998 | 100.45450 | 9121 ft | 290 kts | 31° |
| 2026-05-07 09:49 | 14.08716 | 100.46530 | 8805 ft | 287 kts | 31° |
| 2026-05-07 09:49 | 14.10397 | 100.47587 | 8509 ft | 285 kts | 32° |
| 2026-05-07 09:49 | 14.12090 | 100.48652 | 8184 ft | 282 kts | 32° |
| 2026-05-07 09:50 | 14.13738 | 100.49690 | 7852 ft | 272 kts | 32° |
| 2026-05-07 09:50 | 14.15329 | 100.50690 | 7565 ft | 262 kts | 32° |
| 2026-05-07 09:50 | 14.16885 | 100.51671 | 7297 ft | 263 kts | 32° |
| 2026-05-07 09:50 | 14.18425 | 100.52653 | 6997 ft | 264 kts | 36° |
| 2026-05-07 09:51 | 14.19631 | 100.54040 | 6650 ft | 259 kts | 65° |
| 2026-05-07 09:51 | 14.20083 | 100.55792 | 6353 ft | 252 kts | 92° |
| 2026-05-07 09:51 | 14.19957 | 100.57572 | 6151 ft | 249 kts | 98° |
| 2026-05-07 09:51 | 14.19780 | 100.59349 | 5797 ft | 250 kts | 99° |
| 2026-05-07 09:52 | 14.19583 | 100.61113 | 5247 ft | 253 kts | 99° |
| 2026-05-07 09:52 | 14.19376 | 100.62904 | 5093 ft | 242 kts | 100° |
| 2026-05-07 09:52 | 14.19120 | 100.64610 | 5074 ft | 239 kts | 111° |
| 2026-05-07 09:52 | 14.18282 | 100.66019 | 5024 ft | 230 kts | 141° |
| 2026-05-07 09:53 | 14.16933 | 100.66865 | 4903 ft | 227 kts | 159° |
| 2026-05-07 09:53 | 14.15447 | 100.67372 | 4627 ft | 225 kts | 166° |
| 2026-05-07 09:53 | 14.13940 | 100.67807 | 4313 ft | 225 kts | 166° |
| 2026-05-07 09:53 | 14.12441 | 100.68246 | 4045 ft | 222 kts | 166° |
| 2026-05-07 09:54 | 14.10960 | 100.68681 | 3759 ft | 220 kts | 166° |
| 2026-05-07 09:54 | 14.09512 | 100.69107 | 3508 ft | 218 kts | 165° |
| 2026-05-07 09:54 | 14.08043 | 100.69387 | 3254 ft | 212 kts | 183° |
| 2026-05-07 09:54 | 14.06642 | 100.69079 | 3024 ft | 203 kts | 200° |
| 2026-05-07 09:55 | 14.05406 | 100.68462 | 2798 ft | 193 kts | 207° |
| 2026-05-07 09:55 | 14.04253 | 100.67793 | 2571 ft | 184 kts | 207° |
| 2026-05-07 09:55 | 14.03167 | 100.67175 | 2345 ft | 172 kts | 208° |
| 2026-05-07 09:55 | 14.02142 | 100.66592 | 2126 ft | 164 kts | 207° |
| 2026-05-07 09:56 | 14.01168 | 100.66044 | 1900 ft | 156 kts | 207° |
| 2026-05-07 09:56 | 14.00269 | 100.65536 | 1730 ft | 138 kts | 207° |
| 2026-05-07 09:56 | 13.99443 | 100.65072 | 1583 ft | 138 kts | 207° |
| 2026-05-07 09:56 | 13.98602 | 100.64603 | 1383 ft | 137 kts | 208° |
| 2026-05-07 09:57 | 13.97769 | 100.64129 | 1186 ft | 137 kts | 208° |
| 2026-05-07 09:57 | 13.96932 | 100.63660 | 1001 ft | 137 kts | 208° |
| 2026-05-07 09:57 | 13.96104 | 100.63191 | 818 ft | 136 kts | 208° |
| 2026-05-07 09:57 | 13.95294 | 100.62727 | 598 ft | 136 kts | 209° |
| 2026-05-07 09:58 | 13.94462 | 100.62250 | 434 ft | 137 kts | 207° |
| 2026-05-07 09:58 | 13.93615 | 100.61789 | 245 ft | 137 kts | 207° |
| 2026-05-07 09:58 | 13.92778 | 100.61318 | 88 ft | 138 kts | 208° |
| 2026-05-07 09:58 | 13.91975 | 100.60872 | 20 ft | 115 kts | 208° |
| 2026-05-07 09:59 | 13.91469 | 100.60588 | 18 ft | 58 kts | 208° |
| 2026-05-07 09:59 | 13.91198 | 100.60417 | 19 ft | 43 kts | 222° |
| 2026-05-07 09:59 | 13.91112 | 100.60311 | 21 ft | 6 kts | 236° |
| 2026-05-07 09:59 | 13.91092 | 100.60270 | 22 ft | 7 kts | 255° |
| 2026-05-07 10:00 | 13.91111 | 100.60220 | 20 ft | 9 kts | 318° |
| 2026-05-07 10:00 | 13.91151 | 100.60218 | 20 ft | 5 kts | 29° |
| 2026-05-07 10:00 | 13.91189 | 100.60240 | 19 ft | 8 kts | 29° |
| 2026-05-07 10:00 | 13.91245 | 100.60272 | 21 ft | 11 kts | 29° |
| 2026-05-07 10:01 | 13.91318 | 100.60314 | 19 ft | 13 kts | 29° |
| 2026-05-07 10:01 | 13.91343 | 100.60328 | 19 ft | 3 kts | 29° |
| 2026-05-07 10:01 | 13.91357 | 100.60336 | 19 ft | 1 kts | 29° |
| 2026-05-07 10:01 | 13.91375 | 100.60346 | 19 ft | 4 kts | 29° |
| 2026-05-07 10:02 | 13.91410 | 100.60366 | 21 ft | 7 kts | 28° |
| 2026-05-07 10:02 | 13.91463 | 100.60396 | 19 ft | 10 kts | 28° |
| 2026-05-07 10:02 | 13.91534 | 100.60436 | 20 ft | 13 kts | 28° |
| 2026-05-07 10:02 | 13.91621 | 100.60481 | 20 ft | 15 kts | 28° |
| 2026-05-07 10:03 | 13.91720 | 100.60536 | 21 ft | 17 kts | 28° |
| 2026-05-07 10:03 | 13.91826 | 100.60594 | 21 ft | 20 kts | 28° |
| 2026-05-07 10:03 | 13.91946 | 100.60659 | 20 ft | 22 kts | 28° |
| 2026-05-07 10:03 | 13.92066 | 100.60716 | 20 ft | 15 kts | 343° |
| 2026-05-07 10:04 | 13.92127 | 100.60625 | 20 ft | 15 kts | 299° |
| 2026-05-07 10:04 | 13.92176 | 100.60534 | 20 ft | 10 kts | 290° |
| 2026-05-07 10:04 | 13.92188 | 100.60477 | 20 ft | 1 kts | 268° |
| 2026-05-07 10:04 | 13.92185 | 100.60472 | 21 ft | 0 kts | 232° |
| 2026-05-07 10:05 | 13.92184 | 100.60472 | 20 ft | 0 kts | 212° |
| 2026-05-07 10:05 | 13.92175 | 100.60468 | 20 ft | 3 kts | 198° |
| 2026-05-07 10:05 | 13.92144 | 100.60453 | 20 ft | 4 kts | 211° |
| 2026-05-07 10:05 | 13.92140 | 100.60450 | 20 ft | 0 kts | 211° |